Time;durP1;ratioP1;P1;durP2;ratioP2;P2;SDS_P1;SDS_P2;PMS_P1;PMS_P2;Temp;Humidity;BMP_temperature;BMP_pressure;BME280_temperature;BME280_humidity;BME280_pressure;Samples;Min_cycle;Max_cycle;Signal;HPM_P1;HPM_P2
2023/06/26 00:01:58;;;;;;;2.45;1.60;;;26.10;96.70;;;;;;5027224;28;20501;-69
2023/06/26 00:04:28;;;;;;;2.88;1.85;;;26.10;96.70;;;;;;5051063;28;20649;-68
2023/06/26 00:06:57;;;;;;;2.88;1.63;;;26.00;96.70;;;;;;5047418;28;20064;-68
2023/06/26 00:09:25;;;;;;;5.90;1.85;;;26.00;96.70;;;;;;5046048;28;20051;-69
2023/06/26 00:11:53;;;;;;;4.47;2.20;;;26.00;96.70;;;;;;5034998;28;20445;-68
2023/06/26 00:14:22;;;;;;;3.15;2.03;;;25.90;96.70;;;;;;5027208;28;20429;-68
2023/06/26 00:16:50;;;;;;;2.80;2.00;;;25.80;96.70;;;;;;5045092;28;20033;-69
2023/06/26 00:19:19;;;;;;;4.20;1.80;;;25.90;96.70;;;;;;5026417;28;20045;-69
2023/06/26 00:21:49;;;;;;;3.08;1.60;;;25.80;96.70;;;;;;5032093;28;20147;-68
2023/06/26 00:24:17;;;;;;;1.92;1.70;;;25.80;96.70;;;;;;5045112;28;20496;-68
2023/06/26 00:35:10;;;;;;;2.83;1.70;;;25.70;96.70;;;;;;5045717;28;20055;-68
2023/06/26 00:37:40;;;;;;;2.28;1.83;;;25.80;96.70;;;;;;5055232;28;20049;-69
2023/06/26 00:40:09;;;;;;;2.58;2.05;;;25.80;96.70;;;;;;5056790;28;20040;-69
2023/06/26 00:42:37;;;;;;;3.17;1.67;;;25.60;96.70;;;;;;5037289;28;20044;-69
2023/06/26 01:06:15;;;;;;;2.65;1.83;;;25.30;96.70;;;;;;5038438;28;20080;-70
2023/06/26 01:08:45;;;;;;;1.88;1.70;;;25.40;96.70;;;;;;5043907;28;20052;-70
2023/06/26 01:11:14;;;;;;;2.78;1.90;;;25.50;96.70;;;;;;5043666;28;20041;-70
2023/06/26 01:18:29;;;;;;;5.35;2.15;;;25.40;96.70;;;;;;5035748;28;20056;-70
2023/06/26 01:21:00;;;;;;;5.13;1.88;;;25.10;96.70;;;;;;5042081;28;20054;-68
2023/06/26 01:23:37;;;;;;;3.72;2.00;;;25.00;96.70;;;;;;5043986;28;20045;-68
2023/06/26 01:26:17;;;;;;;3.53;1.67;;;25.00;96.70;;;;;;5036962;28;20053;-69
2023/06/26 01:37:11;;;;;;;2.03;1.83;;;25.20;96.70;;;;;;5041031;28;20157;-69
2023/06/26 01:39:39;;;;;;;2.60;1.90;;;24.90;96.70;;;;;;5038786;28;20048;-68
2023/06/26 02:49:32;;;;;;;3.25;1.67;;;24.40;96.70;;;;;;5012301;28;20153;-67
2023/06/26 02:52:01;;;;;;;2.83;2.00;;;24.40;96.70;;;;;;5035037;28;20063;-68
2023/06/26 02:54:30;;;;;;;2.55;2.03;;;24.20;96.70;;;;;;5052157;28;20051;-68
2023/06/26 02:57:02;;;;;;;2.92;2.17;;;24.20;96.70;;;;;;5040688;28;21076;-68
2023/06/26 02:59:32;;;;;;;4.35;1.90;;;24.30;96.70;;;;;;5055919;28;20363;-69
2023/06/26 03:02:00;;;;;;;2.58;2.17;;;24.30;96.70;;;;;;5043351;28;20055;-68
2023/06/26 03:04:43;;;;;;;2.30;2.10;;;24.30;96.70;;;;;;5031390;28;20409;-68
2023/06/26 03:07:13;;;;;;;2.53;2.30;;;24.30;96.70;;;;;;5036545;28;20135;-68
2023/06/26 03:09:42;;;;;;;3.83;2.70;;;24.20;96.70;;;;;;5016745;28;20188;-69
2023/06/26 03:12:10;;;;;;;3.33;2.35;;;24.10;96.70;;;;;;5056453;28;20696;-68
2023/06/26 03:14:38;;;;;;;5.50;2.53;;;24.20;96.70;;;;;;5045824;28;20040;-69
2023/06/26 03:17:07;;;;;;;4.60;2.55;;;24.20;96.70;;;;;;5035828;28;20068;-69
2023/06/26 03:19:37;;;;;;;3.53;2.30;;;24.10;96.70;;;;;;5048864;28;20144;-68
2023/06/26 03:22:15;;;;;;;5.00;2.35;;;24.10;96.70;;;;;;5038008;28;20055;-69
2023/06/26 03:24:45;;;;;;;5.95;2.45;;;24.10;96.70;;;;;;5040099;28;20131;-69
2023/06/26 03:27:14;;;;;;;4.45;2.47;;;24.10;96.70;;;;;;5025258;28;20048;-68
2023/06/26 03:29:48;;;;;;;3.47;2.22;;;24.00;96.70;;;;;;5040762;28;20134;-69
2023/06/26 03:32:20;;;;;;;2.42;2.20;;;24.00;96.70;;;;;;5042502;28;20120;-69
2023/06/26 03:34:49;;;;;;;4.40;2.30;;;24.00;96.70;;;;;;5043256;28;20044;-69
2023/06/26 03:41:31;;;;;;;3.45;2.10;;;23.90;96.70;;;;;;5045359;28;20051;-68
2023/06/26 03:44:01;;;;;;;3.25;2.13;;;24.00;96.70;;;;;;5026179;28;20053;-68
2023/06/26 03:46:35;;;;;;;4.78;2.80;;;24.00;96.70;;;;;;5044002;28;20051;-69
2023/06/26 03:49:03;;;;;;;3.80;2.33;;;23.90;96.70;;;;;;5036974;28;20141;-68
2023/06/26 03:51:31;;;;;;;3.08;1.70;;;24.00;96.70;;;;;;5050092;28;20084;-69
2023/06/26 03:58:13;;;;;;;3.78;1.88;;;23.80;96.70;;;;;;5037586;28;20576;-68
2023/06/26 04:00:42;;;;;;;3.75;1.90;;;23.90;96.70;;;;;;5043895;28;20125;-69
2023/06/26 04:03:11;;;;;;;3.47;1.98;;;23.90;96.70;;;;;;5048461;28;20044;-68
2023/06/26 04:05:39;;;;;;;2.65;1.63;;;23.70;96.70;;;;;;5055256;28;20091;-68
2023/06/26 04:08:07;;;;;;;3.03;2.17;;;23.80;96.70;;;;;;5049631;28;20041;-68
2023/06/26 04:10:36;;;;;;;2.42;1.70;;;23.90;96.70;;;;;;5036822;28;20058;-68
2023/06/26 04:55:07;;;;;;;5.07;2.92;;;24.00;96.70;;;;;;5022893;28;20056;-68
2023/06/26 04:57:35;;;;;;;4.80;2.92;;;24.10;96.70;;;;;;5030579;28;20041;-69
2023/06/26 05:00:09;;;;;;;5.07;2.47;;;24.00;96.70;;;;;;5044552;28;20049;-69
2023/06/26 05:02:37;;;;;;;4.57;2.67;;;24.00;96.70;;;;;;5046885;28;20056;-68
2023/06/26 05:05:06;;;;;;;4.38;2.90;;;24.00;96.70;;;;;;5046041;28;20483;-69
2023/06/26 05:07:34;;;;;;;3.50;2.50;;;24.10;96.70;;;;;;5046034;28;20413;-68
2023/06/26 05:22:45;;;;;;;2.67;2.13;;;24.20;96.70;;;;;;5039996;28;20059;-68
2023/06/26 05:25:14;;;;;;;4.47;2.17;;;24.30;96.70;;;;;;5025956;28;20079;-68
2023/06/26 05:27:42;;;;;;;2.97;2.28;;;24.20;96.70;;;;;;5042922;28;20056;-68
2023/06/26 05:30:12;;;;;;;4.75;2.20;;;24.20;96.70;;;;;;5052490;28;20136;-68
2023/06/26 05:32:41;;;;;;;4.00;2.63;;;24.20;96.70;;;;;;5052399;28;20418;-68
2023/06/26 05:35:09;;;;;;;5.43;2.05;;;24.20;96.70;;;;;;5031102;28;20040;-68
2023/06/26 05:37:37;;;;;;;8.00;2.95;;;24.20;96.70;;;;;;5044110;28;20560;-69
2023/06/26 05:40:09;;;;;;;3.58;2.67;;;24.20;96.70;;;;;;5044012;28;20418;-68
2023/06/26 05:43:32;;;;;;;4.32;2.60;;;24.10;96.70;;;;;;5035503;28;20041;-68
2023/06/26 05:46:00;;;;;;;5.28;2.85;;;24.00;96.70;;;;;;5047330;28;20048;-68
2023/06/26 05:48:28;;;;;;;5.80;2.92;;;23.90;96.70;;;;;;5041532;28;20043;-69
2023/06/26 05:50:57;;;;;;;4.93;3.65;;;24.00;96.70;;;;;;5047321;28;20037;-68
2023/06/26 05:53:25;;;;;;;6.97;5.03;;;24.20;96.70;;;;;;5017398;28;20095;-69
2023/06/26 05:55:56;;;;;;;8.75;5.82;;;24.20;96.70;;;;;;5043486;28;20052;-68
2023/06/26 05:58:29;;;;;;;10.27;6.72;;;24.30;96.70;;;;;;5043377;28;20053;-68
2023/06/26 06:00:57;;;;;;;8.73;6.18;;;24.30;96.70;;;;;;5043059;28;20060;-68
2023/06/26 06:03:25;;;;;;;6.65;5.30;;;24.40;96.70;;;;;;5045846;28;20510;-68
2023/06/26 06:09:40;;;;;;;7.30;5.13;;;24.50;96.70;;;;;;5038263;28;20036;-69
2023/06/26 06:12:10;;;;;;;6.60;5.43;;;24.60;96.70;;;;;;5031510;28;20427;-68
2023/06/26 06:14:39;;;;;;;7.78;5.30;;;24.60;96.70;;;;;;5050790;28;20121;-68
2023/06/26 06:33:41;;;;;;;9.00;4.97;;;24.90;96.70;;;;;;5041917;28;20145;-68
2023/06/26 06:37:03;;;;;;;6.63;4.13;;;24.90;96.70;;;;;;5043028;28;20052;-69
2023/06/26 06:40:08;;;;;;;5.13;3.60;;;25.00;96.70;;;;;;5042389;28;20045;-69
2023/06/26 06:43:12;;;;;;;4.63;3.33;;;25.00;96.70;;;;;;5043275;28;20564;-69
2023/06/26 06:49:37;;;;;;;5.75;3.13;;;25.30;96.70;;;;;;5040022;28;20501;-68
2023/06/26 06:52:06;;;;;;;4.15;3.53;;;25.30;96.70;;;;;;5048834;28;20071;-69
2023/06/26 06:54:51;;;;;;;4.90;3.65;;;25.30;96.70;;;;;;5024745;28;20252;-68
2023/06/26 06:57:20;;;;;;;4.93;3.40;;;25.30;96.70;;;;;;5024300;28;20592;-68
2023/06/26 06:59:48;;;;;;;6.55;3.45;;;25.30;96.70;;;;;;5032937;28;20053;-68
2023/06/26 07:02:18;;;;;;;6.60;3.53;;;25.40;96.70;;;;;;5036774;28;20498;-69
2023/06/26 07:04:47;;;;;;;4.47;3.85;;;25.50;96.70;;;;;;5040892;28;20048;-69
2023/06/26 07:07:19;;;;;;;6.13;3.40;;;25.60;96.70;;;;;;5040568;28;20069;-69
2023/06/26 07:09:47;;;;;;;5.47;3.88;;;25.60;96.70;;;;;;5038964;28;20044;-69
2023/06/26 07:12:15;;;;;;;4.32;2.97;;;25.70;96.70;;;;;;5023335;28;20075;-69
2023/06/26 07:14:43;;;;;;;7.03;3.42;;;25.70;96.70;;;;;;5023250;28;20049;-69
2023/06/26 07:17:11;;;;;;;7.18;3.20;;;25.80;96.70;;;;;;5047284;28;20469;-69
2023/06/26 07:19:39;;;;;;;6.55;3.30;;;25.90;96.70;;;;;;5041389;28;20064;-69
2023/06/26 07:22:09;;;;;;;4.85;3.20;;;25.90;96.70;;;;;;5046164;28;20045;-69
2023/06/26 07:24:37;;;;;;;4.78;3.45;;;25.80;96.70;;;;;;5045297;28;20059;-69
2023/06/26 07:27:06;;;;;;;5.82;3.55;;;25.90;96.70;;;;;;5028922;28;20042;-72
2023/06/26 07:29:34;;;;;;;4.68;3.55;;;25.90;96.70;;;;;;5027093;28;20052;-72
2023/06/26 07:32:02;;;;;;;5.15;3.50;;;25.90;96.70;;;;;;5041698;28;20067;-72
2023/06/26 07:34:31;;;;;;;7.45;3.63;;;26.00;96.70;;;;;;5027330;28;20045;-72
2023/06/26 07:36:59;;;;;;;7.97;3.40;;;26.00;96.70;;;;;;5046130;28;20155;-69
2023/06/26 07:39:29;;;;;;;4.53;3.42;;;26.00;96.70;;;;;;5041130;28;20132;-69
2023/06/26 07:42:00;;;;;;;5.07;3.28;;;26.10;96.70;;;;;;5027421;28;20107;-69
2023/06/26 07:44:28;;;;;;;3.40;3.08;;;26.10;96.70;;;;;;5045808;28;20041;-69
2023/06/26 07:46:56;;;;;;;3.80;3.40;;;26.10;96.70;;;;;;5054769;28;20055;-69
2023/06/26 07:49:25;;;;;;;4.75;3.40;;;26.10;96.70;;;;;;5028860;28;20476;-69
2023/06/26 07:51:53;;;;;;;7.20;3.60;;;26.10;96.70;;;;;;5064994;28;20119;-69
2023/06/26 07:54:21;;;;;;;4.18;3.60;;;26.10;96.70;;;;;;5049568;28;20091;-69
2023/06/26 07:56:58;;;;;;;4.22;3.47;;;26.20;96.70;;;;;;5045192;28;20053;-70
2023/06/26 07:59:29;;;;;;;4.75;3.20;;;26.30;96.70;;;;;;5027517;28;20053;-70
2023/06/26 08:01:58;;;;;;;4.97;3.40;;;26.40;96.70;;;;;;5044827;28;20048;-70
2023/06/26 08:04:29;;;;;;;10.52;3.80;;;26.50;96.70;;;;;;5023135;28;20041;-69
2023/06/26 08:06:59;;;;;;;4.32;3.47;;;26.50;96.70;;;;;;5010824;28;20049;-68
2023/06/26 08:09:29;;;;;;;5.88;3.70;;;26.60;96.70;;;;;;5044981;28;20049;-69
2023/06/26 08:11:59;;;;;;;5.70;3.10;;;26.70;96.70;;;;;;5044045;28;20542;-69
2023/06/26 08:14:28;;;;;;;3.58;3.03;;;26.80;96.70;;;;;;5036096;28;20053;-69
2023/06/26 08:16:57;;;;;;;5.78;3.38;;;26.80;96.70;;;;;;5027437;28;20051;-70
2023/06/26 08:19:25;;;;;;;5.70;3.40;;;26.90;96.70;;;;;;5030990;28;20053;-69
2023/06/26 08:21:53;;;;;;;4.47;3.65;;;27.00;96.70;;;;;;5027061;28;20537;-69
2023/06/26 08:24:22;;;;;;;3.72;3.25;;;27.10;96.70;;;;;;5024520;28;20145;-71
2023/06/26 08:26:50;;;;;;;4.40;3.45;;;27.10;96.70;;;;;;5026705;28;20052;-71
2023/06/26 08:29:20;;;;;;;5.72;3.70;;;27.20;96.70;;;;;;5044952;28;20099;-69
2023/06/26 08:31:48;;;;;;;6.10;4.03;;;27.30;96.70;;;;;;5044159;28;20069;-71
2023/06/26 08:34:16;;;;;;;4.75;4.20;;;27.30;96.70;;;;;;5044327;28;20183;-69
2023/06/26 08:36:44;;;;;;;5.00;3.63;;;27.40;96.70;;;;;;5026348;28;20041;-69
2023/06/26 08:39:13;;;;;;;7.72;4.20;;;27.50;96.70;;;;;;5036742;28;20110;-69
2023/06/26 08:41:42;;;;;;;6.47;4.40;;;27.60;96.70;;;;;;5044642;28;20503;-69
2023/06/26 08:44:10;;;;;;;9.13;4.70;;;27.60;96.70;;;;;;5044827;28;20049;-69
2023/06/26 08:46:41;;;;;;;8.93;5.63;;;27.70;96.70;;;;;;5036048;28;20052;-69
2023/06/26 08:49:14;;;;;;;10.43;4.82;;;27.80;96.70;;;;;;5051950;28;20493;-69
2023/06/26 08:51:49;;;;;;;6.22;3.92;;;27.90;96.70;;;;;;5036696;28;20045;-69
2023/06/26 08:54:22;;;;;;;9.23;5.10;;;27.90;96.70;;;;;;5031246;28;20503;-70
2023/06/26 08:56:50;;;;;;;8.38;4.60;;;28.00;96.70;;;;;;5045115;28;20421;-70
2023/06/26 08:59:19;;;;;;;8.32;4.53;;;28.10;96.70;;;;;;5053280;28;20094;-70
2023/06/26 09:01:49;;;;;;;6.15;4.22;;;28.20;96.70;;;;;;5027416;28;20045;-70
2023/06/26 09:04:18;;;;;;;7.70;4.35;;;28.30;96.70;;;;;;5050796;28;20542;-69
2023/06/26 09:06:46;;;;;;;5.88;4.43;;;28.30;96.70;;;;;;5044214;28;20037;-69
2023/06/26 09:09:14;;;;;;;6.18;4.10;;;28.30;96.70;;;;;;5044267;28;20044;-69
2023/06/26 09:11:43;;;;;;;7.95;4.40;;;28.40;96.70;;;;;;5044169;28;20059;-69
2023/06/26 09:14:11;;;;;;;5.63;3.80;;;28.50;96.70;;;;;;5052673;28;20494;-69
2023/06/26 09:16:41;;;;;;;5.97;3.75;;;28.60;96.70;;;;;;5027532;28;20131;-69
2023/06/26 09:19:12;;;;;;;6.28;3.72;;;28.80;96.70;;;;;;5038076;28;20388;-71
2023/06/26 09:21:41;;;;;;;5.55;3.60;;;28.80;96.70;;;;;;5047696;28;20075;-71
2023/06/26 09:24:10;;;;;;;9.65;4.15;;;28.90;96.70;;;;;;5022324;28;20037;-69
2023/06/26 09:26:40;;;;;;;3.95;3.50;;;29.00;96.70;;;;;;5051800;28;20127;-69
2023/06/26 09:29:09;;;;;;;5.03;3.88;;;29.20;96.70;;;;;;5043589;28;20051;-69
2023/06/26 09:31:39;;;;;;;4.93;3.65;;;29.20;96.70;;;;;;5014923;28;20497;-69
2023/06/26 09:34:11;;;;;;;5.32;3.75;;;29.10;96.70;;;;;;4994135;28;20647;-69
2023/06/26 09:36:42;;;;;;;5.45;3.67;;;29.00;96.70;;;;;;4999943;28;20046;-69
2023/06/26 09:39:14;;;;;;;3.78;3.47;;;29.20;96.70;;;;;;5000017;28;20065;-69
2023/06/26 09:41:43;;;;;;;5.53;4.40;;;29.20;96.70;;;;;;5000933;28;20056;-69
2023/06/26 09:44:14;;;;;;;5.82;3.92;;;29.10;96.70;;;;;;5000343;28;20515;-69
2023/06/26 09:46:46;;;;;;;6.53;4.25;;;29.20;96.70;;;;;;4976846;28;20499;-69
2023/06/26 09:49:16;;;;;;;5.45;4.28;;;29.40;96.70;;;;;;4982049;28;20574;-69
2023/06/26 09:51:46;;;;;;;4.68;3.78;;;29.40;96.70;;;;;;4984620;28;20062;-69
2023/06/26 09:54:17;;;;;;;3.80;3.30;;;29.40;96.70;;;;;;4984435;28;20045;-69
2023/06/26 09:56:46;;;;;;;4.25;3.50;;;29.50;96.70;;;;;;5000585;28;20597;-69
2023/06/26 09:59:15;;;;;;;5.47;3.65;;;29.60;96.70;;;;;;5000627;28;20157;-69
2023/06/26 10:01:46;;;;;;;5.28;3.85;;;29.70;96.70;;;;;;4986199;28;20595;-69
2023/06/26 10:04:16;;;;;;;5.65;3.70;;;29.90;96.70;;;;;;4996174;28;20085;-70
2023/06/26 10:06:49;;;;;;;5.30;3.78;;;30.00;96.70;;;;;;5062653;28;20053;-70
2023/06/26 10:09:19;;;;;;;5.35;3.90;;;30.10;96.70;;;;;;5062275;28;20047;-71
2023/06/26 10:11:51;;;;;;;5.05;3.97;;;30.20;96.70;;;;;;5043978;28;20488;-70
2023/06/26 10:14:21;;;;;;;4.78;3.75;;;30.20;96.70;;;;;;5061226;28;20051;-70
2023/06/26 10:16:50;;;;;;;4.97;4.03;;;30.30;96.70;;;;;;5055054;28;20049;-69
2023/06/26 10:19:25;;;;;;;4.22;3.83;;;30.40;96.70;;;;;;5050283;28;20048;-69
2023/06/26 10:21:54;;;;;;;5.10;4.60;;;30.60;96.70;;;;;;5059198;28;20044;-69
2023/06/26 10:24:24;;;;;;;5.20;4.30;;;30.50;96.70;;;;;;5024249;28;20454;-69
2023/06/26 10:26:59;;;;;;;6.80;4.13;;;30.50;96.70;;;;;;5053468;28;20388;-69
2023/06/26 10:29:28;;;;;;;5.85;3.85;;;30.50;96.70;;;;;;5062121;28;20044;-69
2023/06/26 10:31:58;;;;;;;4.80;4.25;;;30.60;96.70;;;;;;5045790;28;20037;-69
2023/06/26 10:34:32;;;;;;;4.75;4.13;;;30.60;96.70;;;;;;5048322;28;20051;-67
2023/06/26 10:37:01;;;;;;;5.53;4.03;;;30.80;96.70;;;;;;5049623;28;20044;-68
2023/06/26 10:39:47;;;;;;;6.85;4.35;;;31.00;96.70;;;;;;5052498;28;20110;-68
2023/06/26 10:42:16;;;;;;;9.23;4.18;;;31.10;96.70;;;;;;5044559;28;20569;-68
2023/06/26 10:44:45;;;;;;;6.55;4.70;;;31.30;96.70;;;;;;5035995;28;20597;-68
2023/06/26 10:47:32;;;;;;;6.90;4.50;;;31.40;96.70;;;;;;5043455;28;20048;-69
2023/06/26 10:50:25;;;;;;;6.82;4.45;;;31.50;96.70;;;;;;5056957;28;20041;-69
2023/06/26 10:53:21;;;;;;;7.30;4.38;;;31.50;96.70;;;;;;5030188;28;20556;-69
2023/06/26 10:55:54;;;;;;;8.00;4.30;;;31.60;96.70;;;;;;5059072;28;20056;-69
2023/06/26 10:58:31;;;;;;;8.02;4.15;;;31.80;96.70;;;;;;5055217;28;20049;-69
2023/06/26 11:01:14;;;;;;;6.28;4.68;;;31.90;96.70;;;;;;5061231;28;20041;-70
2023/06/26 11:03:45;;;;;;;5.43;4.65;;;31.90;96.70;;;;;;5064328;28;20429;-68
2023/06/26 11:06:18;;;;;;;5.75;4.07;;;32.00;96.70;;;;;;5030914;28;20053;-69
2023/06/26 11:08:47;;;;;;;5.07;4.50;;;31.90;96.70;;;;;;5041027;28;20123;-69
2023/06/26 11:11:15;;;;;;;4.82;4.25;;;31.90;96.70;;;;;;5053027;28;20044;-69
2023/06/26 11:13:45;;;;;;;8.27;4.65;;;31.90;96.70;;;;;;5056859;28;20089;-70
2023/06/26 11:16:14;;;;;;;5.13;4.00;;;32.00;96.70;;;;;;5001282;28;20093;-69
2023/06/26 11:18:42;;;;;;;4.90;3.90;;;32.10;96.70;;;;;;5000983;28;20062;-69
2023/06/26 11:21:13;;;;;;;6.30;4.32;;;32.30;96.70;;;;;;5000238;28;20058;-69
2023/06/26 11:23:47;;;;;;;5.65;4.60;;;32.50;96.70;;;;;;5001401;28;20046;-70
2023/06/26 11:26:16;;;;;;;5.22;4.72;;;32.60;96.70;;;;;;4993252;28;20057;-69
2023/06/26 11:28:51;;;;;;;5.53;4.57;;;32.50;96.70;;;;;;5003210;28;20038;-70
2023/06/26 11:31:26;;;;;;;4.53;4.03;;;32.50;96.70;;;;;;5002710;28;20266;-69
2023/06/26 11:33:56;;;;;;;4.82;4.18;;;32.50;96.70;;;;;;5000539;28;20052;-70
2023/06/26 11:36:25;;;;;;;6.18;4.65;;;32.50;96.70;;;;;;4983046;28;20463;-70
2023/06/26 11:38:56;;;;;;;4.80;4.25;;;32.50;96.70;;;;;;4995560;28;20054;-69
2023/06/26 11:41:26;;;;;;;6.80;4.10;;;32.70;96.70;;;;;;4985805;28;20054;-70
2023/06/26 11:43:54;;;;;;;4.32;3.92;;;32.80;96.70;;;;;;5002191;28;20042;-69
2023/06/26 11:46:23;;;;;;;5.22;4.13;;;32.70;96.70;;;;;;5005138;28;20677;-69
2023/06/26 11:48:51;;;;;;;4.53;4.13;;;32.80;96.70;;;;;;5022892;28;20037;-69
2023/06/26 11:51:20;;;;;;;4.45;3.63;;;32.90;96.70;;;;;;5045086;28;20090;-69
2023/06/26 11:53:48;;;;;;;6.35;4.28;;;33.00;96.70;;;;;;5043588;28;20045;-69
2023/06/26 11:56:18;;;;;;;5.43;3.92;;;33.00;96.70;;;;;;5042505;28;20045;-69
2023/06/26 11:59:02;;;;;;;6.43;3.28;;;33.00;96.70;;;;;;5043105;28;20053;-70
2023/06/26 12:01:33;;;;;;;5.88;3.97;;;33.00;96.70;;;;;;5038475;28;20049;-69
2023/06/26 12:04:03;;;;;;;5.25;3.80;;;33.00;96.70;;;;;;5044965;28;20048;-69
2023/06/26 12:06:34;;;;;;;5.22;4.03;;;33.00;96.70;;;;;;5026503;28;20128;-69
2023/06/26 12:09:05;;;;;;;5.45;3.60;;;33.00;96.70;;;;;;5032897;28;20055;-70
2023/06/26 12:11:35;;;;;;;5.05;4.25;;;33.20;96.70;;;;;;5033498;28;20057;-71
2023/06/26 12:14:05;;;;;;;4.80;4.18;;;33.40;96.70;;;;;;5044813;28;20071;-71
2023/06/26 12:16:34;;;;;;;4.57;3.70;;;33.50;96.70;;;;;;5043190;28;20045;-71
2023/06/26 12:19:04;;;;;;;4.60;4.07;;;33.50;96.70;;;;;;5043640;28;20399;-71
2023/06/26 12:21:45;;;;;;;4.32;3.85;;;33.40;96.70;;;;;;5015469;28;20085;-71
2023/06/26 12:24:15;;;;;;;6.40;4.60;;;33.50;96.70;;;;;;5043347;28;20053;-69
2023/06/26 12:26:45;;;;;;;4.15;3.75;;;33.70;96.70;;;;;;5044737;28;20044;-69
2023/06/26 12:29:15;;;;;;;4.95;4.00;;;33.80;96.70;;;;;;5044695;28;20037;-69
2023/06/26 12:31:44;;;;;;;3.58;3.28;;;34.00;96.70;;;;;;5028052;28;20045;-71
2023/06/26 12:34:14;;;;;;;4.90;3.90;;;34.00;96.70;;;;;;5059985;28;20082;-70
2023/06/26 12:36:42;;;;;;;4.78;3.80;;;33.80;96.70;;;;;;5051836;28;20045;-68
2023/06/26 12:39:11;;;;;;;4.10;3.70;;;33.80;96.70;;;;;;5044631;28;20568;-68
2023/06/26 12:41:49;;;;;;;4.03;3.63;;;33.70;96.70;;;;;;5039021;28;20049;-69
2023/06/26 12:44:18;;;;;;;4.50;3.42;;;33.70;95.50;;;;;;5043786;28;20056;-69
2023/06/26 12:46:47;;;;;;;4.22;3.83;;;33.80;96.70;;;;;;5053492;28;20148;-69
2023/06/26 12:49:14;;;;;;;4.47;3.50;;;33.80;96.70;;;;;;5042330;28;20183;-70
2023/06/26 12:51:58;;;;;;;4.85;3.35;;;33.90;94.10;;;;;;5043273;28;20036;-70
2023/06/26 12:54:25;;;;;;;3.90;3.50;;;34.10;93.10;;;;;;5019700;28;20068;-69
2023/06/26 12:56:55;;;;;;;4.00;3.45;;;34.20;91.40;;;;;;5011033;28;20064;-69
2023/06/26 12:59:23;;;;;;;4.20;3.60;;;34.10;91.70;;;;;;5046832;28;20044;-69
2023/06/26 13:01:51;;;;;;;3.95;3.63;;;34.20;93.20;;;;;;5048002;28;20052;-68
2023/06/26 13:04:19;;;;;;;4.95;3.97;;;34.30;92.90;;;;;;5034958;28;20095;-69
2023/06/26 13:06:47;;;;;;;3.88;3.47;;;34.60;92.10;;;;;;5046911;28;20048;-69
2023/06/26 13:09:15;;;;;;;4.18;3.63;;;34.80;91.00;;;;;;5043636;28;20059;-70
2023/06/26 13:11:43;;;;;;;4.50;3.65;;;35.10;92.20;;;;;;5019924;28;20094;-70
2023/06/26 13:14:12;;;;;;;4.07;3.67;;;35.30;91.50;;;;;;5052365;28;20048;-71
2023/06/26 13:16:40;;;;;;;5.40;3.70;;;35.40;89.30;;;;;;5043945;28;20049;-70
2023/06/26 13:19:08;;;;;;;5.05;3.72;;;35.40;92.20;;;;;;5049425;28;20039;-70
2023/06/26 13:21:37;;;;;;;4.22;3.53;;;35.40;94.40;;;;;;5009527;28;20056;-70
2023/06/26 13:24:05;;;;;;;4.10;3.47;;;35.60;95.00;;;;;;5057243;28;20033;-69
2023/06/26 13:26:33;;;;;;;5.38;3.75;;;35.60;96.70;;;;;;5060466;28;20133;-69
2023/06/26 13:29:05;;;;;;;5.38;3.97;;;35.50;96.70;;;;;;5039513;28;20094;-69
2023/06/26 13:31:34;;;;;;;4.57;3.95;;;35.40;96.70;;;;;;5054629;28;20401;-69
2023/06/26 13:34:06;;;;;;;3.67;3.38;;;35.40;96.70;;;;;;5041142;28;20055;-70
2023/06/26 13:36:34;;;;;;;5.45;3.67;;;35.50;96.70;;;;;;5036095;28;20098;-72
2023/06/26 13:39:03;;;;;;;4.93;3.60;;;35.50;96.70;;;;;;5018691;28;20067;-69
2023/06/26 13:41:31;;;;;;;6.18;3.50;;;35.70;96.70;;;;;;5038765;28;20518;-70
2023/06/26 13:43:59;;;;;;;4.38;3.38;;;35.80;96.70;;;;;;5034754;28;20044;-70
2023/06/26 13:46:56;;;;;;;5.18;3.65;;;36.00;96.70;;;;;;5021753;28;20041;-70
2023/06/26 13:49:24;;;;;;;4.72;4.10;;;35.80;96.70;;;;;;5026706;28;20053;-70
2023/06/26 13:51:52;;;;;;;5.22;3.90;;;36.00;96.70;;;;;;5040412;28;20037;-69
2023/06/26 13:54:20;;;;;;;6.28;3.85;;;36.10;96.70;;;;;;5043219;28;20055;-70
2023/06/26 13:56:48;;;;;;;6.22;3.88;;;36.30;96.70;;;;;;5036820;28;20045;-72
2023/06/26 13:59:16;;;;;;;3.70;3.22;;;36.20;96.70;;;;;;5051402;28;20470;-70
2023/06/26 14:01:45;;;;;;;6.40;3.78;;;36.30;96.70;;;;;;5044249;28;20563;-71
2023/06/26 14:04:14;;;;;;;5.28;3.72;;;36.40;96.70;;;;;;5043008;28;20049;-70
2023/06/26 14:06:42;;;;;;;4.25;3.72;;;36.60;96.70;;;;;;5042342;28;20064;-70
2023/06/26 14:09:10;;;;;;;5.45;3.67;;;36.50;96.70;;;;;;5046116;28;20045;-72
2023/06/26 14:11:38;;;;;;;5.63;4.50;;;36.50;96.70;;;;;;5051442;28;20064;-72
2023/06/26 14:14:06;;;;;;;3.78;3.45;;;36.40;96.70;;;;;;5028516;28;20119;-71
2023/06/26 14:16:34;;;;;;;5.45;3.75;;;36.30;96.70;;;;;;5047872;28;20469;-71
2023/06/26 14:19:02;;;;;;;5.05;3.53;;;36.60;96.70;;;;;;5049997;28;20126;-71
2023/06/26 14:21:31;;;;;;;6.68;3.72;;;36.50;96.70;;;;;;5032756;28;20044;-72
2023/06/26 14:23:59;;;;;;;4.03;3.63;;;36.50;96.70;;;;;;5024416;28;20044;-72
2023/06/26 14:26:29;;;;;;;3.83;3.47;;;36.60;96.70;;;;;;5051468;28;20079;-71
2023/06/26 14:28:57;;;;;;;4.35;3.40;;;36.70;96.70;;;;;;5049135;28;20041;-72
2023/06/26 14:31:25;;;;;;;5.53;3.72;;;36.80;96.70;;;;;;5031351;28;20044;-71
2023/06/26 14:33:53;;;;;;;5.10;3.28;;;36.70;96.70;;;;;;5042374;28;20890;-72
2023/06/26 14:36:21;;;;;;;3.75;2.83;;;36.90;96.70;;;;;;5022758;28;20731;-71
2023/06/26 14:38:50;;;;;;;5.20;3.53;;;36.90;96.70;;;;;;5024728;28;20045;-71
2023/06/26 14:41:19;;;;;;;6.10;3.85;;;37.10;96.70;;;;;;5044018;28;20041;-71
2023/06/26 14:43:48;;;;;;;6.03;3.95;;;37.00;95.80;;;;;;5041476;28;20068;-72
2023/06/26 14:46:16;;;;;;;5.55;3.92;;;37.20;96.70;;;;;;5041404;28;20052;-72
2023/06/26 14:48:46;;;;;;;4.35;3.40;;;37.20;96.70;;;;;;5038236;28;20083;-72
2023/06/26 14:51:15;;;;;;;3.72;3.20;;;37.20;96.70;;;;;;5037376;28;20544;-73
2023/06/26 14:53:43;;;;;;;4.80;3.30;;;37.30;96.70;;;;;;5062210;28;20044;-74
2023/06/26 14:56:14;;;;;;;4.85;3.80;;;37.50;96.70;;;;;;5059727;28;20065;-75
2023/06/26 14:58:42;;;;;;;5.30;3.85;;;37.20;96.70;;;;;;5059459;28;20048;-76
2023/06/26 15:01:10;;;;;;;6.63;4.00;;;37.40;96.70;;;;;;5045367;28;20132;-75
2023/06/26 15:03:38;;;;;;;6.60;3.20;;;37.60;96.70;;;;;;5031777;28;20063;-74
2023/06/26 15:06:08;;;;;;;5.90;3.67;;;37.80;96.70;;;;;;5051062;28;20730;-74
2023/06/26 15:08:36;;;;;;;3.45;3.13;;;38.00;96.70;;;;;;5044368;28;20036;-73
2023/06/26 15:11:04;;;;;;;3.30;3.00;;;37.80;96.70;;;;;;5032385;28;20071;-72
2023/06/26 15:13:34;;;;;;;3.45;3.13;;;37.80;96.70;;;;;;5040713;28;20514;-74
2023/06/26 15:16:02;;;;;;;5.80;3.70;;;37.70;96.70;;;;;;5024469;28;20487;-74
2023/06/26 15:18:31;;;;;;;5.32;4.07;;;37.50;96.70;;;;;;5050854;28;20047;-75
2023/06/26 15:20:59;;;;;;;4.40;3.63;;;37.40;96.70;;;;;;5052067;28;20033;-74
2023/06/26 15:23:27;;;;;;;8.73;3.50;;;37.00;96.70;;;;;;5055477;28;20484;-72
2023/06/26 15:25:56;;;;;;;5.97;3.80;;;37.00;96.70;;;;;;5041901;28;20502;-71
2023/06/26 15:28:24;;;;;;;4.88;3.80;;;37.30;96.70;;;;;;5042593;28;20068;-72
2023/06/26 15:30:54;;;;;;;5.80;3.22;;;37.60;96.70;;;;;;5046438;28;20635;-72
2023/06/26 15:33:22;;;;;;;7.82;3.65;;;37.50;96.70;;;;;;5052648;28;20645;-71
2023/06/26 15:35:50;;;;;;;4.90;3.45;;;37.80;96.70;;;;;;5040489;28;20493;-71
2023/06/26 15:38:18;;;;;;;3.35;2.83;;;38.00;96.70;;;;;;5041540;28;20136;-71
2023/06/26 15:40:47;;;;;;;3.60;3.30;;;38.50;96.70;;;;;;5042089;28;20537;-71
2023/06/26 15:43:16;;;;;;;3.75;3.35;;;38.50;96.70;;;;;;5045657;28;20056;-71
2023/06/26 15:45:44;;;;;;;4.07;3.25;;;38.40;96.70;;;;;;5029250;28;20052;-75
2023/06/26 15:48:14;;;;;;;5.78;3.65;;;38.40;96.70;;;;;;5048913;28;20450;-72
2023/06/26 15:50:43;;;;;;;4.80;3.08;;;38.40;96.70;;;;;;5026796;28;20527;-73
2023/06/26 15:53:17;;;;;;;4.93;3.45;;;38.60;96.70;;;;;;5046190;28;20049;-73
2023/06/26 15:55:47;;;;;;;3.90;3.38;;;38.50;96.70;;;;;;5027190;28;20530;-72
2023/06/26 15:58:15;;;;;;;5.72;3.30;;;38.40;96.70;;;;;;5045452;28;20508;-71
2023/06/26 16:00:43;;;;;;;3.35;3.05;;;38.40;96.70;;;;;;5045413;28;20044;-72
2023/06/26 16:03:11;;;;;;;3.65;3.20;;;38.60;96.70;;;;;;5054117;28;20099;-71
2023/06/26 16:05:42;;;;;;;4.88;2.95;;;38.60;96.70;;;;;;5053353;28;20051;-71
2023/06/26 16:08:10;;;;;;;3.38;3.08;;;38.80;96.70;;;;;;5039330;28;20104;-71
2023/06/26 16:10:39;;;;;;;4.63;3.47;;;38.70;96.70;;;;;;5051684;28;20033;-72
2023/06/26 16:13:07;;;;;;;3.33;3.05;;;38.70;96.70;;;;;;5036408;28;20060;-72
2023/06/26 16:15:36;;;;;;;4.75;3.05;;;38.90;96.70;;;;;;5045964;28;20101;-72
2023/06/26 16:18:05;;;;;;;3.50;3.15;;;39.20;96.40;;;;;;5043222;28;20051;-72
2023/06/26 16:20:33;;;;;;;4.13;3.00;;;38.90;96.20;;;;;;5043922;28;20228;-71